sensor_id;sensor_type;location;lat;lon;timestamp;temperature;humidity
26757;DHT22;23848;49.798;10.228;2023-03-14T00:00:35;10.10;99.90
26757;DHT22;23848;49.798;10.228;2023-03-14T00:03:07;10.10;99.90
26757;DHT22;23848;49.798;10.228;2023-03-14T00:05:38;10.10;99.90
26757;DHT22;23848;49.798;10.228;2023-03-14T00:08:08;10.10;99.90
26757;DHT22;23848;49.798;10.228;2023-03-14T00:10:43;10.10;99.90
26757;DHT22;23848;49.798;10.228;2023-03-14T00:13:13;10.10;99.90
26757;DHT22;23848;49.798;10.228;2023-03-14T00:15:44;10.20;99.90
26757;DHT22;23848;49.798;10.228;2023-03-14T00:18:14;10.10;99.90
26757;DHT22;23848;49.798;10.228;2023-03-14T00:20:46;10.10;99.90
26757;DHT22;23848;49.798;10.228;2023-03-14T00:23:17;10.10;99.90
26757;DHT22;23848;49.798;10.228;2023-03-14T00:26:00;10.10;99.90
26757;DHT22;23848;49.798;10.228;2023-03-14T00:28:36;10.20;99.90
26757;DHT22;23848;49.798;10.228;2023-03-14T00:31:15;10.20;99.90
26757;DHT22;23848;49.798;10.228;2023-03-14T00:33:51;10.20;99.90
26757;DHT22;23848;49.798;10.228;2023-03-14T00:36:22;10.20;99.90
26757;DHT22;23848;49.798;10.228;2023-03-14T00:38:52;10.20;99.90
26757;DHT22;23848;49.798;10.228;2023-03-14T00:41:26;10.20;99.90
26757;DHT22;23848;49.798;10.228;2023-03-14T00:44:05;10.20;99.90
26757;DHT22;23848;49.798;10.228;2023-03-14T00:46:35;10.20;99.90
26757;DHT22;23848;49.798;10.228;2023-03-14T00:49:06;10.30;99.90
26757;DHT22;23848;49.798;10.228;2023-03-14T00:51:36;10.30;99.90
26757;DHT22;23848;49.798;10.228;2023-03-14T00:54:07;10.30;99.90
26757;DHT22;23848;49.798;10.228;2023-03-14T00:56:58;10.30;99.90
26757;DHT22;23848;49.798;10.228;2023-03-14T00:59:29;10.30;99.90
26757;DHT22;23848;49.798;10.228;2023-03-14T01:02:04;10.30;99.90
26757;DHT22;23848;49.798;10.228;2023-03-14T01:04:34;10.30;99.90
26757;DHT22;23848;49.798;10.228;2023-03-14T01:07:06;10.30;99.90
26757;DHT22;23848;49.798;10.228;2023-03-14T01:09:37;10.40;99.90
26757;DHT22;23848;49.798;10.228;2023-03-14T01:12:08;10.30;99.90
26757;DHT22;23848;49.798;10.228;2023-03-14T01:14:50;10.40;99.90
26757;DHT22;23848;49.798;10.228;2023-03-14T01:17:18;10.30;99.90
26757;DHT22;23848;49.798;10.228;2023-03-14T01:19:52;10.30;99.90
26757;DHT22;23848;49.798;10.228;2023-03-14T01:22:22;10.30;99.90
26757;DHT22;23848;49.798;10.228;2023-03-14T01:24:50;10.30;99.90
26757;DHT22;23848;49.798;10.228;2023-03-14T01:27:20;10.40;99.90
26757;DHT22;23848;49.798;10.228;2023-03-14T01:29:48;10.40;99.90
26757;DHT22;23848;49.798;10.228;2023-03-14T01:32:21;10.40;99.90
26757;DHT22;23848;49.798;10.228;2023-03-14T01:34:50;10.40;99.90
26757;DHT22;23848;49.798;10.228;2023-03-14T01:37:21;10.40;99.90
26757;DHT22;23848;49.798;10.228;2023-03-14T01:39:52;10.40;99.90
26757;DHT22;23848;49.798;10.228;2023-03-14T01:42:25;10.40;99.90
26757;DHT22;23848;49.798;10.228;2023-03-14T01:44:55;10.40;99.90
26757;DHT22;23848;49.798;10.228;2023-03-14T01:47:29;10.40;99.90
26757;DHT22;23848;49.798;10.228;2023-03-14T01:50:01;10.40;99.90
26757;DHT22;23848;49.798;10.228;2023-03-14T01:52:33;10.40;99.90
26757;DHT22;23848;49.798;10.228;2023-03-14T01:55:06;10.40;99.90
26757;DHT22;23848;49.798;10.228;2023-03-14T01:57:44;10.40;99.90
26757;DHT22;23848;49.798;10.228;2023-03-14T02:00:21;10.40;99.90
26757;DHT22;23848;49.798;10.228;2023-03-14T02:02:55;10.30;99.90
26757;DHT22;23848;49.798;10.228;2023-03-14T02:05:26;10.30;99.90
26757;DHT22;23848;49.798;10.228;2023-03-14T02:07:59;10.30;99.90
26757;DHT22;23848;49.798;10.228;2023-03-14T02:10:37;10.30;99.90
26757;DHT22;23848;49.798;10.228;2023-03-14T02:13:13;10.30;99.90
26757;DHT22;23848;49.798;10.228;2023-03-14T02:15:46;10.30;99.90
26757;DHT22;23848;49.798;10.228;2023-03-14T02:18:18;10.30;99.90
26757;DHT22;23848;49.798;10.228;2023-03-14T02:20:54;10.30;99.90
26757;DHT22;23848;49.798;10.228;2023-03-14T02:23:34;10.20;99.90
26757;DHT22;23848;49.798;10.228;2023-03-14T02:26:13;10.20;99.90
26757;DHT22;23848;49.798;10.228;2023-03-14T02:28:47;10.20;99.90
26757;DHT22;23848;49.798;10.228;2023-03-14T02:31:16;10.20;99.90
26757;DHT22;23848;49.798;10.228;2023-03-14T02:33:49;10.20;99.90
26757;DHT22;23848;49.798;10.228;2023-03-14T02:36:23;10.20;99.90
26757;DHT22;23848;49.798;10.228;2023-03-14T02:39:03;10.20;99.90
26757;DHT22;23848;49.798;10.228;2023-03-14T02:41:41;10.20;99.90
26757;DHT22;23848;49.798;10.228;2023-03-14T02:44:16;10.20;99.90
26757;DHT22;23848;49.798;10.228;2023-03-14T02:46:46;10.20;99.90
26757;DHT22;23848;49.798;10.228;2023-03-14T02:49:19;10.10;99.90
26757;DHT22;23848;49.798;10.228;2023-03-14T02:51:50;10.20;99.90
26757;DHT22;23848;49.798;10.228;2023-03-14T02:54:24;10.10;99.90
26757;DHT22;23848;49.798;10.228;2023-03-14T02:56:52;10.10;99.90
26757;DHT22;23848;49.798;10.228;2023-03-14T02:59:25;10.10;99.90
26757;DHT22;23848;49.798;10.228;2023-03-14T03:02:03;10.10;99.90
26757;DHT22;23848;49.798;10.228;2023-03-14T03:04:36;10.10;99.90
26757;DHT22;23848;49.798;10.228;2023-03-14T03:07:08;10.10;99.90
26757;DHT22;23848;49.798;10.228;2023-03-14T03:09:36;10.20;99.90
26757;DHT22;23848;49.798;10.228;2023-03-14T03:12:06;10.20;99.90
26757;DHT22;23848;49.798;10.228;2023-03-14T03:14:39;10.20;99.90
26757;DHT22;23848;49.798;10.228;2023-03-14T03:17:07;10.20;99.90
26757;DHT22;23848;49.798;10.228;2023-03-14T03:19:35;10.20;99.90
26757;DHT22;23848;49.798;10.228;2023-03-14T03:22:04;10.10;99.90
26757;DHT22;23848;49.798;10.228;2023-03-14T03:24:34;10.10;99.90
26757;DHT22;23848;49.798;10.228;2023-03-14T03:27:03;10.10;99.90
26757;DHT22;23848;49.798;10.228;2023-03-14T03:29:33;10.10;99.90
26757;DHT22;23848;49.798;10.228;2023-03-14T03:32:04;10.10;99.90
26757;DHT22;23848;49.798;10.228;2023-03-14T03:34:37;10.10;99.90
26757;DHT22;23848;49.798;10.228;2023-03-14T03:37:06;10.10;99.90
26757;DHT22;23848;49.798;10.228;2023-03-14T03:39:37;10.10;99.90
26757;DHT22;23848;49.798;10.228;2023-03-14T03:42:08;10.10;99.90
26757;DHT22;23848;49.798;10.228;2023-03-14T03:44:38;10.00;99.90
26757;DHT22;23848;49.798;10.228;2023-03-14T03:47:11;10.00;99.90
26757;DHT22;23848;49.798;10.228;2023-03-14T03:49:44;10.00;99.90
26757;DHT22;23848;49.798;10.228;2023-03-14T03:52:12;10.00;99.90
26757;DHT22;23848;49.798;10.228;2023-03-14T03:54:42;10.00;99.90
26757;DHT22;23848;49.798;10.228;2023-03-14T03:57:11;10.00;99.90
26757;DHT22;23848;49.798;10.228;2023-03-14T03:59:43;10.00;99.90
26757;DHT22;23848;49.798;10.228;2023-03-14T04:02:13;10.00;99.90
26757;DHT22;23848;49.798;10.228;2023-03-14T04:04:43;10.10;99.90
26757;DHT22;23848;49.798;10.228;2023-03-14T04:07:11;10.00;99.90
26757;DHT22;23848;49.798;10.228;2023-03-14T04:09:40;10.10;99.90
26757;DHT22;23848;49.798;10.228;2023-03-14T04:12:11;10.10;99.90
26757;DHT22;23848;49.798;10.228;2023-03-14T04:14:40;10.10;99.90
26757;DHT22;23848;49.798;10.228;2023-03-14T04:17:12;10.10;99.90
26757;DHT22;23848;49.798;10.228;2023-03-14T04:19:44;10.10;99.90
26757;DHT22;23848;49.798;10.228;2023-03-14T04:22:14;10.10;99.90
26757;DHT22;23848;49.798;10.228;2023-03-14T04:24:42;10.10;99.90
26757;DHT22;23848;49.798;10.228;2023-03-14T04:27:21;10.20;99.90
26757;DHT22;23848;49.798;10.228;2023-03-14T04:29:49;10.30;99.90
26757;DHT22;23848;49.798;10.228;2023-03-14T04:32:19;10.20;99.90
26757;DHT22;23848;49.798;10.228;2023-03-14T04:34:50;10.30;99.90
26757;DHT22;23848;49.798;10.228;2023-03-14T04:37:19;10.20;99.90
26757;DHT22;23848;49.798;10.228;2023-03-14T04:39:47;10.20;99.90
26757;DHT22;23848;49.798;10.228;2023-03-14T04:42:18;10.30;99.90
26757;DHT22;23848;49.798;10.228;2023-03-14T04:44:49;10.30;99.90
26757;DHT22;23848;49.798;10.228;2023-03-14T04:47:22;10.20;99.90
26757;DHT22;23848;49.798;10.228;2023-03-14T04:49:54;10.20;99.90
26757;DHT22;23848;49.798;10.228;2023-03-14T04:52:26;10.20;99.90
26757;DHT22;23848;49.798;10.228;2023-03-14T04:54:55;10.20;99.90
26757;DHT22;23848;49.798;10.228;2023-03-14T04:57:23;10.20;99.90
26757;DHT22;23848;49.798;10.228;2023-03-14T04:59:51;10.20;99.90
26757;DHT22;23848;49.798;10.228;2023-03-14T05:02:23;10.20;99.90
26757;DHT22;23848;49.798;10.228;2023-03-14T05:04:52;10.10;99.90
26757;DHT22;23848;49.798;10.228;2023-03-14T05:07:20;10.10;99.90
26757;DHT22;23848;49.798;10.228;2023-03-14T05:09:51;10.10;99.90
26757;DHT22;23848;49.798;10.228;2023-03-14T05:12:31;10.10;99.90
26757;DHT22;23848;49.798;10.228;2023-03-14T05:15:05;10.00;99.90
26757;DHT22;23848;49.798;10.228;2023-03-14T05:17:50;10.00;99.90
26757;DHT22;23848;49.798;10.228;2023-03-14T05:20:21;10.00;99.90
26757;DHT22;23848;49.798;10.228;2023-03-14T05:22:49;10.00;99.90
26757;DHT22;23848;49.798;10.228;2023-03-14T05:25:21;10.00;99.90
26757;DHT22;23848;49.798;10.228;2023-03-14T05:27:52;10.00;99.90
26757;DHT22;23848;49.798;10.228;2023-03-14T05:30:23;10.00;99.90
26757;DHT22;23848;49.798;10.228;2023-03-14T05:32:57;9.90;99.90
26757;DHT22;23848;49.798;10.228;2023-03-14T05:35:31;9.90;99.90
26757;DHT22;23848;49.798;10.228;2023-03-14T05:38:04;9.90;99.90
26757;DHT22;23848;49.798;10.228;2023-03-14T05:40:33;9.90;99.90
26757;DHT22;23848;49.798;10.228;2023-03-14T05:43:07;9.90;99.90
26757;DHT22;23848;49.798;10.228;2023-03-14T05:45:39;9.90;99.90
26757;DHT22;23848;49.798;10.228;2023-03-14T05:48:13;9.90;99.90
26757;DHT22;23848;49.798;10.228;2023-03-14T05:50:57;9.90;99.90
26757;DHT22;23848;49.798;10.228;2023-03-14T05:53:31;9.80;99.90
26757;DHT22;23848;49.798;10.228;2023-03-14T05:56:13;9.90;99.90
26757;DHT22;23848;49.798;10.228;2023-03-14T06:10:09;9.80;99.90
26757;DHT22;23848;49.798;10.228;2023-03-14T06:12:57;9.80;99.90
26757;DHT22;23848;49.798;10.228;2023-03-14T06:15:44;9.90;99.90
26757;DHT22;23848;49.798;10.228;2023-03-14T06:18:29;9.90;99.90
26757;DHT22;23848;49.798;10.228;2023-03-14T06:21:18;9.90;99.90
26757;DHT22;23848;49.798;10.228;2023-03-14T06:29:56;9.80;99.90
26757;DHT22;23848;49.798;10.228;2023-03-14T06:35:30;9.80;99.90
26757;DHT22;23848;49.798;10.228;2023-03-14T06:38:00;9.70;99.90
26757;DHT22;23848;49.798;10.228;2023-03-14T06:40:29;9.80;99.90
26757;DHT22;23848;49.798;10.228;2023-03-14T06:42:57;9.80;99.90
26757;DHT22;23848;49.798;10.228;2023-03-14T06:45:27;9.80;99.90
26757;DHT22;23848;49.798;10.228;2023-03-14T06:47:58;9.80;99.90
26757;DHT22;23848;49.798;10.228;2023-03-14T06:50:28;9.80;99.90
26757;DHT22;23848;49.798;10.228;2023-03-14T06:52:56;9.80;99.90
26757;DHT22;23848;49.798;10.228;2023-03-14T06:55:27;9.80;99.90
26757;DHT22;23848;49.798;10.228;2023-03-14T06:58:00;9.90;99.90
26757;DHT22;23848;49.798;10.228;2023-03-14T07:00:30;9.90;99.90
26757;DHT22;23848;49.798;10.228;2023-03-14T07:02:58;9.90;99.90
26757;DHT22;23848;49.798;10.228;2023-03-14T07:05:27;10.00;99.90
26757;DHT22;23848;49.798;10.228;2023-03-14T07:07:55;10.00;99.90
26757;DHT22;23848;49.798;10.228;2023-03-14T07:10:24;10.00;99.90
26757;DHT22;23848;49.798;10.228;2023-03-14T07:12:52;10.10;99.90
26757;DHT22;23848;49.798;10.228;2023-03-14T07:15:21;10.10;99.90
26757;DHT22;23848;49.798;10.228;2023-03-14T07:18:02;10.20;99.90
26757;DHT22;23848;49.798;10.228;2023-03-14T07:20:32;10.10;99.90
26757;DHT22;23848;49.798;10.228;2023-03-14T07:23:01;10.20;99.90
26757;DHT22;23848;49.798;10.228;2023-03-14T07:25:30;10.30;99.90
26757;DHT22;23848;49.798;10.228;2023-03-14T07:27:58;10.30;99.90
26757;DHT22;23848;49.798;10.228;2023-03-14T07:30:27;10.30;99.90
26757;DHT22;23848;49.798;10.228;2023-03-14T07:32:57;10.40;99.90
26757;DHT22;23848;49.798;10.228;2023-03-14T07:35:28;10.50;99.90
26757;DHT22;23848;49.798;10.228;2023-03-14T07:37:57;10.50;99.90
26757;DHT22;23848;49.798;10.228;2023-03-14T07:40:26;10.50;99.90
26757;DHT22;23848;49.798;10.228;2023-03-14T07:42:54;10.60;99.90
26757;DHT22;23848;49.798;10.228;2023-03-14T07:45:23;10.60;99.90
26757;DHT22;23848;49.798;10.228;2023-03-14T07:47:51;10.60;99.90
26757;DHT22;23848;49.798;10.228;2023-03-14T07:50:22;10.60;99.90
26757;DHT22;23848;49.798;10.228;2023-03-14T07:52:51;10.70;99.90
26757;DHT22;23848;49.798;10.228;2023-03-14T07:55:19;10.60;99.90
26757;DHT22;23848;49.798;10.228;2023-03-14T07:57:48;10.70;99.90
26757;DHT22;23848;49.798;10.228;2023-03-14T08:00:17;10.70;99.90
26757;DHT22;23848;49.798;10.228;2023-03-14T08:02:45;10.80;99.90
26757;DHT22;23848;49.798;10.228;2023-03-14T08:05:14;10.80;99.90
26757;DHT22;23848;49.798;10.228;2023-03-14T08:07:48;10.80;99.90
26757;DHT22;23848;49.798;10.228;2023-03-14T08:10:17;10.90;99.90
26757;DHT22;23848;49.798;10.228;2023-03-14T08:12:54;10.90;99.90
26757;DHT22;23848;49.798;10.228;2023-03-14T08:15:32;10.90;99.90
26757;DHT22;23848;49.798;10.228;2023-03-14T08:18:01;11.00;99.90
26757;DHT22;23848;49.798;10.228;2023-03-14T08:20:30;11.00;99.90
26757;DHT22;23848;49.798;10.228;2023-03-14T08:23:06;11.00;99.90
26757;DHT22;23848;49.798;10.228;2023-03-14T08:25:34;11.00;99.90
26757;DHT22;23848;49.798;10.228;2023-03-14T08:28:06;11.00;99.90
26757;DHT22;23848;49.798;10.228;2023-03-14T08:30:34;11.10;99.90
26757;DHT22;23848;49.798;10.228;2023-03-14T08:33:02;11.10;99.90
26757;DHT22;23848;49.798;10.228;2023-03-14T08:35:31;11.20;99.90
26757;DHT22;23848;49.798;10.228;2023-03-14T08:38:00;11.20;99.90
26757;DHT22;23848;49.798;10.228;2023-03-14T08:40:30;11.20;99.90
26757;DHT22;23848;49.798;10.228;2023-03-14T08:42:58;11.30;99.90
26757;DHT22;23848;49.798;10.228;2023-03-14T08:45:27;11.40;99.90
26757;DHT22;23848;49.798;10.228;2023-03-14T08:47:55;11.40;99.90
26757;DHT22;23848;49.798;10.228;2023-03-14T08:50:23;11.40;99.90
26757;DHT22;23848;49.798;10.228;2023-03-14T08:52:51;11.40;99.90
26757;DHT22;23848;49.798;10.228;2023-03-14T08:55:20;11.50;99.90
26757;DHT22;23848;49.798;10.228;2023-03-14T08:57:49;11.50;99.90
26757;DHT22;23848;49.798;10.228;2023-03-14T09:00:18;11.50;99.90
26757;DHT22;23848;49.798;10.228;2023-03-14T09:02:47;11.40;99.90
26757;DHT22;23848;49.798;10.228;2023-03-14T09:05:17;11.50;99.90
26757;DHT22;23848;49.798;10.228;2023-03-14T09:07:45;11.60;99.90
26757;DHT22;23848;49.798;10.228;2023-03-14T09:10:13;11.60;99.90
26757;DHT22;23848;49.798;10.228;2023-03-14T09:12:42;11.70;99.90
26757;DHT22;23848;49.798;10.228;2023-03-14T09:15:11;11.60;99.90
26757;DHT22;23848;49.798;10.228;2023-03-14T09:17:39;11.70;99.90
26757;DHT22;23848;49.798;10.228;2023-03-14T09:20:10;11.70;99.90
26757;DHT22;23848;49.798;10.228;2023-03-14T09:22:40;11.80;99.90
26757;DHT22;23848;49.798;10.228;2023-03-14T09:25:10;12.00;99.90
26757;DHT22;23848;49.798;10.228;2023-03-14T09:27:38;12.00;99.90
26757;DHT22;23848;49.798;10.228;2023-03-14T09:30:08;12.10;99.90
26757;DHT22;23848;49.798;10.228;2023-03-14T09:32:37;12.10;99.90
26757;DHT22;23848;49.798;10.228;2023-03-14T09:35:06;12.20;99.90
26757;DHT22;23848;49.798;10.228;2023-03-14T09:37:34;12.20;99.90
26757;DHT22;23848;49.798;10.228;2023-03-14T09:40:02;12.20;99.90
26757;DHT22;23848;49.798;10.228;2023-03-14T09:42:43;12.20;99.90
